Time;durP1;ratioP1;P1;durP2;ratioP2;P2;SDS_P1;SDS_P2;PMS_P1;PMS_P2;Temp;Humidity;BMP_temperature;BMP_pressure;BME280_temperature;BME280_humidity;BME280_pressure;Samples;Min_cycle;Max_cycle;Signal;HPM_P1;HPM_P2
2023/05/30 00:01:54;;;;;;;5.43;4.93;;;18.50;77.10;;;;;;10380875;28;20221;-87
2023/05/30 00:06:57;;;;;;;4.73;4.30;;;18.40;76.60;;;;;;10390412;28;20276;-88
2023/05/30 00:12:00;;;;;;;5.40;4.80;;;18.40;76.90;;;;;;10367530;28;20226;-88
2023/05/30 00:17:02;;;;;;;5.30;4.90;;;18.30;76.70;;;;;;10362638;28;20229;-88
2023/05/30 00:22:08;;;;;;;5.83;5.23;;;18.20;77.60;;;;;;10351491;28;20548;-88
2023/05/30 00:27:10;;;;;;;6.63;5.10;;;18.20;78.20;;;;;;10386688;28;20227;-88
2023/05/30 00:32:17;;;;;;;5.97;5.00;;;18.10;77.40;;;;;;10371001;28;20245;-87
2023/05/30 00:37:22;;;;;;;5.97;5.47;;;18.00;78.70;;;;;;10367398;28;20688;-87
2023/05/30 00:42:28;;;;;;;6.10;5.60;;;18.00;78.60;;;;;;10341020;28;20664;-88
2023/05/30 00:47:30;;;;;;;6.07;5.27;;;17.90;78.10;;;;;;10355988;28;20227;-88
2023/05/30 00:52:34;;;;;;;5.30;4.80;;;17.80;78.50;;;;;;10361228;28;20237;-88
2023/05/30 00:57:37;;;;;;;6.07;5.57;;;17.70;79.60;;;;;;10380902;28;20221;-88
2023/05/30 01:02:40;;;;;;;6.27;5.70;;;17.70;79.30;;;;;;10353157;28;20640;-88
2023/05/30 01:07:44;;;;;;;6.77;5.80;;;17.70;80.00;;;;;;10368904;28;20223;-88
2023/05/30 01:12:55;;;;;;;8.37;5.67;;;17.60;80.30;;;;;;10362822;28;20245;-88
2023/05/30 01:18:04;;;;;;;7.63;5.93;;;17.60;79.70;;;;;;10402141;28;20206;-88
2023/05/30 01:23:23;;;;;;;6.23;5.27;;;17.60;81.00;;;;;;10407136;28;20218;-88
2023/05/30 01:28:30;;;;;;;6.23;4.87;;;17.50;80.60;;;;;;10389309;28;20223;-88
2023/05/30 01:33:33;;;;;;;5.13;4.73;;;17.50;81.10;;;;;;10372217;28;20287;-88
2023/05/30 01:38:37;;;;;;;5.10;4.70;;;17.50;80.60;;;;;;10355584;28;20215;-86
2023/05/30 01:43:49;;;;;;;8.00;5.13;;;17.60;81.70;;;;;;10396020;28;20198;-88
2023/05/30 01:48:59;;;;;;;5.60;5.10;;;17.50;81.60;;;;;;10354648;28;20245;-88
2023/05/30 01:54:05;;;;;;;5.57;5.07;;;17.50;81.50;;;;;;10370805;28;20586;-87
2023/05/30 01:59:10;;;;;;;6.93;5.23;;;17.50;82.30;;;;;;10371255;28;20360;-88
2023/05/30 02:04:12;;;;;;;5.83;5.33;;;17.40;81.40;;;;;;10353030;28;20199;-88
2023/05/30 02:09:15;;;;;;;7.13;5.20;;;17.40;81.90;;;;;;10385785;28;20211;-88
2023/05/30 02:14:22;;;;;;;4.83;4.43;;;17.30;82.60;;;;;;10373999;28;20234;-88
2023/05/30 02:19:24;;;;;;;6.83;6.13;;;17.30;81.80;;;;;;10380622;28;20294;-88
2023/05/30 02:24:26;;;;;;;8.13;5.57;;;17.20;82.20;;;;;;10368378;28;20595;-86
2023/05/30 02:29:30;;;;;;;6.40;5.80;;;17.10;83.50;;;;;;10395257;28;20712;-86
2023/05/30 02:34:33;;;;;;;5.47;4.97;;;17.10;83.00;;;;;;10350722;28;20696;-86
2023/05/30 02:39:38;;;;;;;5.97;5.40;;;17.10;83.20;;;;;;10361656;28;20211;-86
2023/05/30 02:44:42;;;;;;;5.10;4.70;;;17.00;83.10;;;;;;10373125;28;20223;-86
2023/05/30 02:49:47;;;;;;;8.23;5.70;;;17.00;83.80;;;;;;10367198;28;20211;-86
2023/05/30 02:54:49;;;;;;;7.00;6.40;;;17.00;83.80;;;;;;10351783;28;20237;-86
2023/05/30 03:00:03;;;;;;;6.80;5.30;;;16.90;83.90;;;;;;10371963;28;20208;-86
2023/05/30 03:05:07;;;;;;;5.57;5.07;;;16.80;84.90;;;;;;10370645;28;20234;-86
2023/05/30 03:10:10;;;;;;;6.43;5.07;;;16.80;84.80;;;;;;10365361;28;20211;-86
2023/05/30 03:15:18;;;;;;;7.47;5.27;;;16.80;85.10;;;;;;10377956;28;20785;-86
2023/05/30 03:20:23;;;;;;;6.20;5.70;;;16.80;84.70;;;;;;10390439;28;20195;-86
2023/05/30 03:25:25;;;;;;;7.67;5.73;;;16.80;85.30;;;;;;10364948;28;20226;-87
2023/05/30 03:30:29;;;;;;;6.00;5.40;;;16.80;84.80;;;;;;10383695;28;20207;-87
2023/05/30 03:35:36;;;;;;;5.93;5.33;;;16.70;84.60;;;;;;10359988;28;20251;-87
2023/05/30 03:40:38;;;;;;;6.20;5.70;;;16.70;85.20;;;;;;10358958;28;20228;-87
2023/05/30 03:45:42;;;;;;;6.20;5.17;;;16.60;85.40;;;;;;10359516;28;20310;-87
2023/05/30 03:50:44;;;;;;;6.20;5.60;;;16.60;85.90;;;;;;10350397;28;20586;-87
2023/05/30 03:55:47;;;;;;;5.30;4.80;;;16.60;86.10;;;;;;10355411;28;20235;-87
2023/05/30 04:00:50;;;;;;;5.13;4.73;;;16.60;85.40;;;;;;10363897;28;20720;-87
2023/05/30 04:05:53;;;;;;;6.10;5.13;;;16.60;86.20;;;;;;10367353;28;20219;-87
2023/05/30 04:10:55;;;;;;;6.50;5.90;;;16.60;86.50;;;;;;10350558;28;20227;-87
2023/05/30 04:16:00;;;;;;;6.23;5.63;;;16.60;86.90;;;;;;10367655;28;20258;-87
2023/05/30 04:21:02;;;;;;;5.97;5.10;;;16.70;86.70;;;;;;10369637;28;20205;-87
2023/05/30 04:26:08;;;;;;;6.13;5.63;;;16.70;86.60;;;;;;10353109;28;20227;-86
2023/05/30 04:31:12;;;;;;;7.33;5.43;;;16.70;87.10;;;;;;10345756;28;20226;-86
2023/05/30 04:36:18;;;;;;;5.50;5.10;;;16.80;87.20;;;;;;10386417;28;20241;-87
2023/05/30 04:41:24;;;;;;;6.27;5.77;;;16.80;86.50;;;;;;10362778;28;20207;-86
2023/05/30 04:46:29;;;;;;;8.93;5.07;;;16.90;87.30;;;;;;10373905;28;20237;-84
2023/05/30 04:51:32;;;;;;;6.27;5.70;;;16.90;87.00;;;;;;10386556;28;20614;-85
2023/05/30 04:56:35;;;;;;;7.03;6.40;;;17.00;87.40;;;;;;10349647;28;20232;-85
2023/05/30 05:01:41;;;;;;;6.03;5.50;;;17.10;88.30;;;;;;10368492;28;20204;-86
2023/05/30 05:06:43;;;;;;;6.50;5.90;;;17.20;87.70;;;;;;10382300;28;20321;-87
2023/05/30 05:11:45;;;;;;;7.13;6.43;;;17.20;88.20;;;;;;10360869;28;20203;-87
2023/05/30 05:16:49;;;;;;;6.67;6.00;;;17.40;86.70;;;;;;10366073;28;20226;-87
2023/05/30 05:21:51;;;;;;;5.50;5.00;;;17.50;87.90;;;;;;10372920;28;20211;-87
2023/05/30 05:26:53;;;;;;;5.93;5.30;;;17.60;86.50;;;;;;10358391;28;20334;-87
2023/05/30 05:31:57;;;;;;;6.90;5.47;;;17.80;85.90;;;;;;10341430;28;20204;-87
2023/05/30 05:36:59;;;;;;;8.07;5.30;;;17.90;84.50;;;;;;10368685;28;20222;-86
2023/05/30 05:42:02;;;;;;;8.70;5.33;;;18.10;84.60;;;;;;10376753;28;20207;-87
2023/05/30 05:47:07;;;;;;;6.37;5.50;;;18.20;83.90;;;;;;10380267;28;20215;-86
2023/05/30 05:52:09;;;;;;;6.77;5.20;;;18.30;83.80;;;;;;10375666;28;20211;-87
2023/05/30 05:57:11;;;;;;;6.57;5.27;;;18.50;83.40;;;;;;10358736;28;20222;-85
2023/05/30 06:02:15;;;;;;;5.53;5.03;;;18.60;82.90;;;;;;10358354;28;20213;-85
2023/05/30 06:07:17;;;;;;;5.50;5.00;;;18.80;82.10;;;;;;10356956;28;20219;-85
2023/05/30 06:12:19;;;;;;;5.27;4.77;;;18.90;82.00;;;;;;10342131;28;20258;-85
2023/05/30 06:17:22;;;;;;;8.23;5.43;;;19.10;81.30;;;;;;10377122;28;20238;-84
2023/05/30 06:22:24;;;;;;;8.13;5.40;;;19.20;81.20;;;;;;10359852;28;20659;-84
2023/05/30 06:27:26;;;;;;;7.97;5.37;;;19.40;79.90;;;;;;10393257;28;20653;-84
2023/05/30 06:32:30;;;;;;;5.33;4.30;;;19.50;78.70;;;;;;10375566;28;20199;-84
2023/05/30 06:37:32;;;;;;;6.00;5.17;;;19.60;78.20;;;;;;10366068;28;20291;-85
2023/05/30 06:42:34;;;;;;;8.03;5.30;;;19.80;78.10;;;;;;10403185;28;20203;-83
2023/05/30 06:47:38;;;;;;;4.83;4.37;;;20.00;78.50;;;;;;10378682;28;20758;-84
2023/05/30 06:52:40;;;;;;;8.10;4.80;;;20.20;77.90;;;;;;10382178;28;20210;-84
2023/05/30 06:57:43;;;;;;;8.17;4.60;;;20.40;75.60;;;;;;10376656;28;20223;-84
2023/05/30 07:02:47;;;;;;;5.90;5.10;;;20.50;74.60;;;;;;10405750;28;20215;-84
2023/05/30 07:07:49;;;;;;;5.37;4.80;;;20.60;75.70;;;;;;10381734;28;20223;-85
2023/05/30 07:12:52;;;;;;;8.60;5.27;;;20.80;74.70;;;;;;10380361;28;20690;-84
2023/05/30 07:17:55;;;;;;;6.07;4.70;;;21.00;75.90;;;;;;10393497;28;20219;-84
2023/05/30 07:22:57;;;;;;;6.00;5.00;;;21.10;75.50;;;;;;10385930;28;20215;-83
2023/05/30 07:28:00;;;;;;;11.00;5.23;;;21.30;74.60;;;;;;10381322;28;20258;-84
2023/05/30 07:33:03;;;;;;;6.07;5.03;;;21.40;74.30;;;;;;10373162;28;20219;-84
2023/05/30 07:38:06;;;;;;;5.03;4.50;;;21.50;73.40;;;;;;10362877;28;20353;-85
2023/05/30 07:43:08;;;;;;;11.03;4.93;;;21.70;73.40;;;;;;10373574;28;20724;-83
2023/05/30 07:48:11;;;;;;;4.33;3.93;;;22.00;72.40;;;;;;10365945;28;20269;-84
2023/05/30 07:53:13;;;;;;;5.00;4.50;;;22.40;73.60;;;;;;10395920;28;20222;-84
2023/05/30 07:58:15;;;;;;;5.83;4.57;;;22.60;72.90;;;;;;10372020;28;20223;-84
2023/05/30 08:03:19;;;;;;;7.57;5.10;;;22.80;70.20;;;;;;10392635;28;20231;-84
2023/05/30 08:08:21;;;;;;;4.20;3.80;;;23.00;71.20;;;;;;10358835;28;20321;-83
2023/05/30 08:13:26;;;;;;;8.57;4.57;;;23.20;70.90;;;;;;10384495;28;20405;-85
2023/05/30 08:18:30;;;;;;;5.63;4.00;;;23.80;70.30;;;;;;10398071;28;20223;-84
2023/05/30 08:23:32;;;;;;;5.00;3.93;;;24.30;68.60;;;;;;10371283;28;20662;-84
2023/05/30 08:28:34;;;;;;;8.07;4.20;;;24.80;66.80;;;;;;10385421;28;20289;-85
2023/05/30 08:33:38;;;;;;;4.90;4.20;;;25.00;66.50;;;;;;10369853;28;20265;-84
2023/05/30 08:38:40;;;;;;;4.80;3.83;;;25.40;65.60;;;;;;10402911;28;20211;-84
2023/05/30 08:43:42;;;;;;;7.20;4.27;;;25.60;64.80;;;;;;10382651;28;20591;-85
2023/05/30 08:48:46;;;;;;;12.03;4.37;;;25.90;63.20;;;;;;10383507;28;20224;-84
2023/05/30 08:53:52;;;;;;;11.30;5.43;;;26.10;61.40;;;;;;10355964;28;20227;-85
2023/05/30 08:58:57;;;;;;;4.33;3.63;;;26.30;61.80;;;;;;10367994;28;20223;-84
2023/05/30 09:04:01;;;;;;;5.87;5.37;;;26.40;62.50;;;;;;10395246;28;20234;-85
2023/05/30 09:09:03;;;;;;;5.30;3.93;;;26.70;61.30;;;;;;10416563;28;20675;-84
2023/05/30 09:14:05;;;;;;;5.83;4.63;;;26.90;60.20;;;;;;10381589;28;20214;-84
2023/05/30 09:19:09;;;;;;;4.80;4.30;;;27.10;60.30;;;;;;10421389;28;20206;-84
2023/05/30 09:24:14;;;;;;;10.07;4.50;;;27.30;59.30;;;;;;10403587;28;20666;-84
2023/05/30 09:29:16;;;;;;;4.53;4.00;;;27.40;60.00;;;;;;10380276;28;20340;-85
2023/05/30 09:34:20;;;;;;;5.83;4.07;;;27.60;58.00;;;;;;10395733;28;20661;-85
2023/05/30 09:39:23;;;;;;;4.87;3.90;;;27.90;59.10;;;;;;10396141;28;20268;-85
2023/05/30 09:44:25;;;;;;;4.47;4.07;;;28.40;58.50;;;;;;10395806;28;20348;-85
2023/05/30 09:49:29;;;;;;;5.20;3.33;;;29.10;57.30;;;;;;10407723;28;20682;-85
2023/05/30 09:54:31;;;;;;;4.23;3.90;;;30.00;56.90;;;;;;10407186;28;20222;-85
2023/05/30 09:59:33;;;;;;;5.73;4.17;;;31.10;55.20;;;;;;10399802;28;20297;-85
2023/05/30 10:04:45;;;;;;;4.57;4.10;;;32.30;54.30;;;;;;10396001;28;20225;-85
2023/05/30 10:09:49;;;;;;;4.20;3.80;;;33.60;52.20;;;;;;10380072;28;20564;-84
2023/05/30 10:14:51;;;;;;;5.30;3.80;;;34.60;51.00;;;;;;10394832;28;20257;-85
2023/05/30 10:19:59;;;;;;;4.30;3.90;;;35.10;48.70;;;;;;10395187;28;20739;-85
2023/05/30 10:25:04;;;;;;;4.40;4.00;;;33.60;47.40;;;;;;10374539;28;1091058;-84
2023/05/30 10:30:08;;;;;;;4.40;4.00;;;31.50;50.10;;;;;;10379335;28;20226;-84
2023/05/30 10:35:15;;;;;;;6.63;4.00;;;29.50;52.30;;;;;;10379522;28;20230;-84
2023/05/30 10:40:31;;;;;;;6.00;4.00;;;28.10;54.20;;;;;;10396559;28;20284;-84
2023/05/30 10:45:43;;;;;;;4.10;3.50;;;27.10;55.10;;;;;;10399900;28;20226;-84
2023/05/30 10:50:49;;;;;;;6.27;4.10;;;26.30;57.40;;;;;;10410325;28;20206;-84
2023/05/30 10:55:52;;;;;;;10.73;4.00;;;25.70;57.40;;;;;;10413525;28;20285;-84
2023/05/30 11:00:54;;;;;;;9.80;4.67;;;25.30;58.10;;;;;;10395146;28;20249;-84
2023/05/30 11:05:57;;;;;;;5.20;3.80;;;24.90;58.40;;;;;;10391721;28;20357;-84
2023/05/30 11:10:59;;;;;;;5.20;4.60;;;24.50;59.40;;;;;;10374237;28;20741;-84
2023/05/30 11:16:20;;;;;;;5.70;4.40;;;24.30;60.30;;;;;;10387728;28;20236;-84
2023/05/30 11:21:58;;;;;;;5.20;4.10;;;24.10;60.10;;;;;;10415187;28;20242;-84
2023/05/30 11:27:08;;;;;;;10.50;4.63;;;23.90;59.50;;;;;;10377509;28;20639;-84
2023/05/30 11:32:11;;;;;;;4.60;4.00;;;23.70;61.10;;;;;;10412116;28;20289;-84
2023/05/30 11:37:15;;;;;;;4.57;4.17;;;23.70;61.90;;;;;;10394565;28;20223;-84
2023/05/30 11:42:19;;;;;;;5.83;4.37;;;23.90;61.30;;;;;;10394649;28;20195;-84
2023/05/30 11:47:22;;;;;;;5.30;4.10;;;23.80;59.80;;;;;;10378547;28;20253;-84
2023/05/30 11:52:25;;;;;;;6.00;4.57;;;23.80;59.70;;;;;;10395900;28;20194;-84
2023/05/30 11:57:28;;;;;;;4.60;4.20;;;23.70;59.70;;;;;;10420640;28;20644;-84
2023/05/30 12:02:31;;;;;;;6.30;3.90;;;23.70;59.90;;;;;;10395737;28;20708;-84
2023/05/30 12:07:34;;;;;;;5.27;4.50;;;23.70;59.30;;;;;;10376398;28;20665;-84
2023/05/30 12:12:37;;;;;;;4.93;3.90;;;23.70;59.20;;;;;;10412212;28;20667;-84
2023/05/30 12:17:41;;;;;;;4.60;3.73;;;23.60;59.60;;;;;;10393490;28;20226;-84
2023/05/30 12:22:45;;;;;;;4.50;4.00;;;23.60;59.80;;;;;;10376562;28;20199;-84
2023/05/30 12:27:48;;;;;;;8.90;4.27;;;23.50;59.70;;;;;;10409783;28;20250;-85
2023/05/30 12:32:50;;;;;;;5.10;4.50;;;23.50;59.60;;;;;;10376742;28;20224;-84
2023/05/30 12:37:57;;;;;;;4.70;4.30;;;23.50;60.10;;;;;;10410156;28;20305;-84
2023/05/30 12:42:59;;;;;;;4.70;4.30;;;23.50;60.10;;;;;;10375242;28;20207;-84
2023/05/30 12:48:01;;;;;;;4.47;4.03;;;23.60;59.90;;;;;;10403141;28;20639;-84
2023/05/30 12:53:04;;;;;;;4.13;3.77;;;23.70;59.10;;;;;;10410633;28;20235;-84
2023/05/30 12:58:07;;;;;;;4.40;3.60;;;23.70;59.80;;;;;;10384194;28;20226;-84
2023/05/30 13:03:09;;;;;;;5.30;4.43;;;23.80;58.60;;;;;;10383529;28;20318;-84
2023/05/30 13:08:12;;;;;;;4.70;3.50;;;23.80;58.70;;;;;;10383085;28;20279;-84
2023/05/30 13:13:16;;;;;;;4.43;3.73;;;23.80;59.70;;;;;;10399015;28;20230;-84
2023/05/30 13:18:18;;;;;;;5.10;3.97;;;23.80;59.10;;;;;;10382687;28;20226;-85
2023/05/30 13:23:21;;;;;;;3.80;3.40;;;24.00;58.40;;;;;;10382831;28;20226;-84
2023/05/30 13:28:23;;;;;;;6.10;4.07;;;24.00;58.30;;;;;;10345445;28;20235;-84
2023/05/30 13:33:25;;;;;;;5.43;4.53;;;23.90;59.50;;;;;;10375702;28;20388;-85
2023/05/30 13:38:29;;;;;;;3.90;3.60;;;23.90;59.30;;;;;;10342191;28;20281;-84
2023/05/30 13:43:31;;;;;;;3.83;3.50;;;23.90;58.40;;;;;;10357383;28;20223;-84
2023/05/30 13:48:33;;;;;;;4.43;3.97;;;23.80;59.70;;;;;;10375743;28;20229;-84
2023/05/30 13:53:37;;;;;;;4.87;4.20;;;23.80;59.90;;;;;;10356923;28;20203;-84
2023/05/30 13:58:40;;;;;;;4.90;4.00;;;23.80;60.00;;;;;;10383298;28;20231;-84
2023/05/30 14:03:43;;;;;;;5.30;3.50;;;23.80;59.90;;;;;;10339171;28;20664;-84
2023/05/30 14:08:47;;;;;;;5.13;4.07;;;23.90;60.40;;;;;;10355542;28;20215;-85
2023/05/30 14:13:49;;;;;;;4.13;3.73;;;24.00;60.10;;;;;;10345873;28;20199;-85
2023/05/30 14:18:53;;;;;;;4.10;3.70;;;24.00;59.00;;;;;;10368751;28;20226;-85
2023/05/30 14:23:56;;;;;;;4.93;4.40;;;24.10;59.90;;;;;;10363263;28;20659;-84
2023/05/30 14:28:58;;;;;;;4.97;4.00;;;24.10;59.20;;;;;;10420891;28;20194;-84
2023/05/30 14:34:00;;;;;;;6.40;4.20;;;24.10;59.90;;;;;;10406111;28;20202;-84
2023/05/30 14:39:04;;;;;;;4.13;3.47;;;24.20;59.60;;;;;;10408102;28;20202;-85
2023/05/30 14:44:06;;;;;;;7.80;3.90;;;24.20;59.20;;;;;;10421077;28;20199;-84
2023/05/30 14:49:09;;;;;;;3.60;3.30;;;24.20;59.40;;;;;;10385740;28;20226;-83
2023/05/30 14:54:12;;;;;;;3.87;3.57;;;24.30;59.00;;;;;;10399581;28;20261;-84
2023/05/30 14:59:16;;;;;;;3.80;3.10;;;24.20;59.70;;;;;;10394159;28;20305;-84
2023/05/30 15:04:20;;;;;;;4.60;3.77;;;24.20;59.10;;;;;;10407110;28;20234;-85
2023/05/30 15:09:25;;;;;;;4.00;3.70;;;24.10;59.10;;;;;;10397934;28;20729;-85
2023/05/30 15:14:27;;;;;;;4.20;3.80;;;24.10;58.60;;;;;;10382220;28;20230;-83
2023/05/30 15:19:30;;;;;;;3.93;3.60;;;24.00;58.50;;;;;;10413530;28;20210;-83
2023/05/30 15:24:33;;;;;;;4.00;3.60;;;23.90;57.70;;;;;;10442027;22;20237;-83
2023/05/30 15:29:35;;;;;;;4.10;3.60;;;23.90;58.30;;;;;;10435958;28;20224;-81
2023/05/30 15:34:42;;;;;;;3.70;3.10;;;23.90;58.70;;;;;;10440449;28;20565;-82
2023/05/30 15:39:45;;;;;;;5.90;4.00;;;23.90;58.60;;;;;;10434188;28;20195;-81
2023/05/30 15:44:47;;;;;;;5.00;4.17;;;23.80;57.90;;;;;;10415806;28;20229;-81
2023/05/30 15:49:50;;;;;;;7.60;3.43;;;23.80;57.70;;;;;;10414922;28;20248;-82
2023/05/30 15:54:54;;;;;;;5.03;3.70;;;23.70;58.40;;;;;;10429408;28;20218;-82
2023/05/30 15:59:56;;;;;;;3.37;3.07;;;23.70;58.80;;;;;;10397158;28;20284;-80
2023/05/30 16:04:59;;;;;;;4.10;3.70;;;23.70;57.80;;;;;;10434030;28;20218;-81
2023/05/30 16:10:02;;;;;;;3.80;3.50;;;23.60;58.20;;;;;;10437127;28;20290;-81
2023/05/30 16:15:06;;;;;;;5.97;3.17;;;23.60;57.30;;;;;;10420475;28;20260;-81
2023/05/30 16:20:09;;;;;;;6.27;3.93;;;23.60;57.50;;;;;;10421320;28;20282;-82
2023/05/30 16:25:12;;;;;;;4.37;3.90;;;23.50;57.10;;;;;;10410703;28;20239;-82
2023/05/30 16:30:14;;;;;;;4.40;3.87;;;23.50;57.40;;;;;;10454120;28;20198;-81
2023/05/30 16:35:18;;;;;;;4.93;3.43;;;23.50;58.10;;;;;;10453063;28;20285;-82
2023/05/30 16:40:21;;;;;;;5.20;3.37;;;23.40;56.80;;;;;;10423468;28;20210;-81
2023/05/30 16:45:23;;;;;;;8.43;3.50;;;23.40;56.60;;;;;;10433078;28;20222;-82
2023/05/30 16:50:26;;;;;;;5.73;3.60;;;23.30;57.30;;;;;;10417496;28;20214;-82
2023/05/30 16:55:29;;;;;;;4.43;3.50;;;23.30;56.90;;;;;;10433098;28;20194;-82
2023/05/30 17:00:31;;;;;;;3.83;3.37;;;23.30;57.00;;;;;;10434961;28;20663;-82
2023/05/30 17:05:33;;;;;;;4.57;3.50;;;23.20;57.60;;;;;;10438083;28;20230;-82
2023/05/30 17:10:36;;;;;;;3.97;3.67;;;23.20;55.40;;;;;;10432729;28;20203;-81
2023/05/30 17:15:38;;;;;;;4.77;3.37;;;23.10;55.60;;;;;;10392568;28;20230;-82
2023/05/30 17:20:41;;;;;;;4.90;3.33;;;23.00;55.30;;;;;;10416328;28;20594;-82
2023/05/30 17:25:44;;;;;;;4.47;3.17;;;23.00;55.10;;;;;;10433023;28;20223;-82
2023/05/30 17:30:46;;;;;;;5.10;3.80;;;22.90;55.30;;;;;;10439836;28;20202;-81
2023/05/30 17:35:48;;;;;;;3.50;3.20;;;22.90;54.80;;;;;;10391487;28;20223;-81
2023/05/30 17:40:52;;;;;;;4.50;4.00;;;22.90;53.30;;;;;;10422329;28;20211;-81
2023/05/30 17:45:54;;;;;;;6.63;3.47;;;22.80;55.20;;;;;;10441351;28;20591;-81
2023/05/30 17:50:56;;;;;;;3.40;3.20;;;22.80;53.80;;;;;;10425222;28;20550;-82
2023/05/30 17:55:59;;;;;;;4.17;3.20;;;22.70;54.20;;;;;;10422256;28;20309;-82
2023/05/30 18:01:01;;;;;;;3.40;3.10;;;22.70;54.40;;;;;;10430199;28;20210;-82
2023/05/30 18:06:04;;;;;;;5.87;3.07;;;22.60;54.20;;;;;;10438592;28;20215;-82
2023/05/30 18:11:07;;;;;;;6.70;3.40;;;22.50;54.10;;;;;;10420923;28;20198;-81
2023/05/30 18:16:10;;;;;;;4.20;3.23;;;22.50;52.90;;;;;;10420401;28;20408;-81
2023/05/30 18:21:12;;;;;;;5.73;3.27;;;22.40;53.20;;;;;;10420003;28;20230;-82
2023/05/30 18:26:15;;;;;;;3.83;3.10;;;22.40;53.10;;;;;;10429406;28;20591;-82
2023/05/30 18:31:18;;;;;;;3.33;3.03;;;22.30;52.90;;;;;;10412484;28;20256;-82
2023/05/30 18:36:20;;;;;;;5.70;2.77;;;22.20;51.50;;;;;;10432919;28;20694;-82
2023/05/30 18:41:25;;;;;;;3.27;2.97;;;22.10;52.30;;;;;;10431212;28;20198;-82
2023/05/30 18:46:27;;;;;;;3.20;2.90;;;22.00;52.60;;;;;;10445037;28;20223;-83
2023/05/30 18:51:31;;;;;;;3.17;2.87;;;21.90;53.30;;;;;;10407939;28;20202;-82
2023/05/30 18:56:36;;;;;;;4.00;3.10;;;21.90;55.00;;;;;;10405794;28;20320;-82
2023/05/30 19:01:38;;;;;;;3.80;3.43;;;21.80;55.00;;;;;;10431355;28;20222;-82
2023/05/30 19:06:40;;;;;;;3.37;3.07;;;21.70;52.70;;;;;;10430067;28;20219;-82
2023/05/30 19:11:44;;;;;;;3.00;2.73;;;21.60;54.20;;;;;;10429296;28;20202;-82
2023/05/30 19:16:46;;;;;;;5.00;3.27;;;21.50;53.70;;;;;;10397148;28;20237;-82
2023/05/30 19:21:48;;;;;;;3.40;3.10;;;21.50;55.80;;;;;;10438004;28;20202;-82
2023/05/30 19:26:51;;;;;;;3.87;3.50;;;21.40;59.40;;;;;;10428961;28;20246;-82
2023/05/30 19:31:53;;;;;;;3.60;3.07;;;21.30;56.30;;;;;;10432310;28;20297;-82
2023/05/30 19:36:55;;;;;;;3.77;3.43;;;21.20;57.30;;;;;;10373341;28;20230;-82
2023/05/30 19:41:59;;;;;;;4.57;3.60;;;21.10;57.70;;;;;;10413160;28;20205;-82
2023/05/30 19:47:01;;;;;;;7.53;2.87;;;21.00;57.00;;;;;;10410064;28;20241;-82
2023/05/30 19:52:04;;;;;;;3.20;2.77;;;20.90;57.80;;;;;;10445147;28;20218;-82
2023/05/30 19:57:11;;;;;;;7.50;3.20;;;20.70;58.20;;;;;;10447463;28;20222;-82
2023/05/30 20:02:13;;;;;;;3.13;2.93;;;20.60;58.10;;;;;;10421403;28;20491;-82
2023/05/30 20:07:15;;;;;;;3.40;3.17;;;20.50;57.70;;;;;;10448284;28;20222;-82
2023/05/30 20:12:18;;;;;;;3.27;3.00;;;20.30;58.50;;;;;;10447551;28;20221;-82
2023/05/30 20:17:20;;;;;;;5.50;3.80;;;20.20;58.10;;;;;;10431469;28;20226;-82
2023/05/30 20:22:23;;;;;;;3.20;3.00;;;20.00;58.00;;;;;;10436808;28;20211;-82
2023/05/30 20:27:26;;;;;;;3.73;3.33;;;19.90;58.00;;;;;;10448901;28;20203;-82
2023/05/30 20:32:28;;;;;;;3.10;2.80;;;19.80;58.50;;;;;;10442925;28;20205;-82
2023/05/30 20:37:30;;;;;;;3.50;2.90;;;19.70;58.90;;;;;;10417562;28;20226;-82
2023/05/30 20:42:34;;;;;;;4.30;3.20;;;19.60;60.10;;;;;;10417660;28;20215;-82
2023/05/30 20:47:36;;;;;;;5.63;4.03;;;19.50;60.70;;;;;;10433062;28;20211;-82
2023/05/30 20:52:38;;;;;;;3.03;2.83;;;19.40;59.90;;;;;;10417146;28;20201;-82
2023/05/30 20:57:42;;;;;;;4.73;3.50;;;19.30;60.20;;;;;;10450814;28;20249;-82
2023/05/30 21:02:44;;;;;;;3.43;3.13;;;19.30;60.00;;;;;;10427729;28;20195;-82
2023/05/30 21:07:46;;;;;;;6.63;3.40;;;19.20;61.10;;;;;;10416913;28;20221;-82
2023/05/30 21:12:50;;;;;;;3.70;3.03;;;19.10;60.00;;;;;;10438266;28;20194;-82
2023/05/30 21:17:52;;;;;;;3.63;3.30;;;19.10;59.90;;;;;;10416388;28;20254;-82
2023/05/30 21:22:55;;;;;;;5.10;3.57;;;19.00;60.50;;;;;;10440969;28;20198;-82
2023/05/30 21:27:58;;;;;;;3.67;3.20;;;18.90;60.50;;;;;;10412646;23;20265;-86
2023/05/30 21:33:00;;;;;;;3.70;3.40;;;18.80;61.90;;;;;;10351550;28;20334;-87
2023/05/30 21:38:02;;;;;;;3.67;3.37;;;18.80;61.50;;;;;;10412796;28;20250;-86
2023/05/30 21:43:06;;;;;;;9.17;4.10;;;18.70;62.10;;;;;;10399896;28;20274;-85
2023/05/30 21:48:09;;;;;;;3.40;3.20;;;18.70;61.50;;;;;;10409034;28;20222;-85
2023/05/30 21:53:11;;;;;;;3.47;3.17;;;18.70;62.40;;;;;;10424101;28;20210;-85
2023/05/30 21:58:14;;;;;;;3.17;2.87;;;18.60;61.80;;;;;;10390961;28;20281;-86
2023/05/30 22:03:17;;;;;;;3.50;3.20;;;18.50;61.80;;;;;;10391032;28;20243;-85
2023/05/30 22:08:19;;;;;;;3.13;2.83;;;18.50;61.60;;;;;;10393260;28;20222;-85
2023/05/30 22:13:22;;;;;;;2.70;2.50;;;18.40;62.10;;;;;;10407131;28;20210;-86
2023/05/30 22:18:24;;;;;;;3.30;3.10;;;18.40;61.60;;;;;;10393105;28;20665;-86
2023/05/30 22:23:26;;;;;;;4.87;2.90;;;18.30;61.20;;;;;;10397355;28;20230;-85
2023/05/30 22:28:30;;;;;;;3.73;3.33;;;18.20;61.20;;;;;;10428825;28;20256;-86
2023/05/30 22:33:32;;;;;;;3.60;2.93;;;18.20;62.70;;;;;;10392649;28;20199;-86
2023/05/30 22:38:34;;;;;;;3.53;3.00;;;18.10;62.50;;;;;;10415041;28;20253;-85
2023/05/30 22:43:38;;;;;;;3.33;2.40;;;18.10;62.90;;;;;;10410852;28;20261;-85
2023/05/30 22:48:40;;;;;;;3.67;3.10;;;18.00;64.30;;;;;;10382672;28;20281;-85
2023/05/30 22:53:42;;;;;;;3.30;2.80;;;18.00;64.20;;;;;;10382450;28;20270;-85
2023/05/30 22:58:57;;;;;;;4.00;3.20;;;18.00;64.20;;;;;;10386315;28;20230;-85
2023/05/30 23:04:20;;;;;;;5.20;2.77;;;18.00;64.10;;;;;;10388999;28;20229;-85
2023/05/30 23:09:55;;;;;;;2.70;2.50;;;18.00;64.10;;;;;;10408411;28;20187;-85
2023/05/30 23:15:11;;;;;;;4.40;2.80;;;18.00;65.40;;;;;;10398012;28;20232;-85
2023/05/30 23:20:13;;;;;;;7.30;2.67;;;18.00;64.70;;;;;;10418053;28;20285;-84
2023/05/30 23:25:15;;;;;;;7.07;2.77;;;18.00;64.30;;;;;;10387416;28;20250;-85
2023/05/30 23:30:19;;;;;;;2.80;2.43;;;18.00;64.00;;;;;;10385260;28;20286;-85
2023/05/30 23:35:36;;;;;;;;;;;;;;;;;;;;;
2023/05/30 23:40:49;;;;;;;3.10;2.73;;;18.00;64.70;;;;;;10383165;28;20317;-85
2023/05/30 23:45:53;;;;;;;3.17;2.80;;;18.00;64.90;;;;;;10385811;28;20253;-86
2023/05/30 23:50:55;;;;;;;2.87;2.57;;;18.00;66.20;;;;;;10386975;28;20213;-85
2023/05/30 23:55:57;;;;;;;3.10;2.40;;;18.00;64.10;;;;;;10400442;28;20226;-85
